Time;durP1;ratioP1;P1;durP2;ratioP2;P2;SDS_P1;SDS_P2;PMS_P1;PMS_P2;Temp;Humidity;BMP_temperature;BMP_pressure;BME280_temperature;BME280_humidity;BME280_pressure;Samples;Min_cycle;Max_cycle;Signal;HPM_P1;HPM_P2
2024/01/02 00:01:16;;;;;;;23.48;6.97;;;6.50;99.90;;;;;;4986339;28;20210;-71
2024/01/02 00:03:44;;;;;;;19.60;6.13;;;6.40;99.90;;;;;;4989443;28;20252;-72
2024/01/02 00:06:15;;;;;;;20.42;6.75;;;6.20;99.90;;;;;;4987047;28;20704;-71
2024/01/02 00:08:43;;;;;;;20.52;7.75;;;6.30;99.90;;;;;;4991460;28;20664;-72
2024/01/02 00:11:14;;;;;;;17.15;5.72;;;6.30;99.90;;;;;;4992722;28;20248;-71
2024/01/02 00:13:41;;;;;;;17.65;6.22;;;6.30;99.90;;;;;;4992622;28;20309;-72
2024/01/02 00:16:10;;;;;;;21.30;7.32;;;6.20;99.90;;;;;;4993098;28;20221;-72
2024/01/02 00:18:37;;;;;;;15.60;7.18;;;6.20;99.90;;;;;;4991498;28;20222;-73
2024/01/02 00:21:15;;;;;;;10.18;5.95;;;6.10;99.90;;;;;;4987729;28;20225;-72
2024/01/02 00:23:43;;;;;;;14.95;5.72;;;6.00;99.90;;;;;;4992528;28;20675;-71
2024/01/02 00:26:10;;;;;;;17.38;5.97;;;6.00;99.90;;;;;;4994056;28;20214;-73
2024/01/02 00:28:37;;;;;;;12.80;4.43;;;6.00;99.90;;;;;;4991215;28;20319;-73
2024/01/02 00:31:04;;;;;;;15.85;5.45;;;6.00;99.90;;;;;;4987914;28;20249;-71
2024/01/02 00:33:31;;;;;;;12.60;5.38;;;6.00;99.90;;;;;;4992116;28;20206;-72
2024/01/02 00:35:58;;;;;;;20.42;5.72;;;6.00;99.90;;;;;;4989185;28;20265;-73
2024/01/02 00:38:27;;;;;;;13.13;4.63;;;6.00;99.90;;;;;;4989285;28;20735;-71
2024/01/02 00:40:55;;;;;;;12.48;5.35;;;6.00;99.90;;;;;;4989529;28;20289;-71
2024/01/02 00:43:22;;;;;;;14.68;5.10;;;6.00;99.90;;;;;;4994886;28;20206;-72
2024/01/02 00:45:49;;;;;;;15.02;5.47;;;6.00;99.90;;;;;;4994885;28;20234;-72
2024/01/02 00:48:16;;;;;;;12.63;5.50;;;6.10;99.90;;;;;;4993105;28;20218;-71
2024/01/02 00:50:43;;;;;;;12.57;5.45;;;6.10;99.90;;;;;;4994284;28;20260;-71
2024/01/02 00:53:10;;;;;;;10.75;4.28;;;6.10;99.90;;;;;;4995607;28;20704;-71
2024/01/02 00:55:37;;;;;;;16.52;4.53;;;6.10;99.90;;;;;;4995249;28;20202;-72
2024/01/02 00:58:06;;;;;;;12.45;4.78;;;6.00;99.90;;;;;;4994542;28;20218;-72
2024/01/02 01:00:33;;;;;;;16.30;6.25;;;6.00;99.90;;;;;;4993208;28;20664;-72
2024/01/02 01:03:00;;;;;;;18.02;5.53;;;6.00;99.90;;;;;;4988827;28;20202;-72
2024/01/02 01:05:28;;;;;;;18.17;5.50;;;6.00;99.90;;;;;;4995486;28;20574;-72
2024/01/02 01:07:55;;;;;;;17.55;4.97;;;6.00;99.90;;;;;;4994423;28;20296;-72
2024/01/02 01:10:22;;;;;;;24.50;5.18;;;6.10;99.90;;;;;;4990223;28;20214;-72
2024/01/02 01:12:49;;;;;;;11.55;4.13;;;6.00;99.90;;;;;;4995473;28;20198;-71
2024/01/02 01:15:18;;;;;;;12.80;5.28;;;6.00;99.90;;;;;;4994271;28;20210;-70
2024/01/02 01:17:45;;;;;;;19.35;5.22;;;6.00;99.90;;;;;;4993865;28;20280;-70
2024/01/02 01:20:12;;;;;;;18.67;5.60;;;6.00;99.90;;;;;;4994316;28;20241;-71
2024/01/02 01:22:39;;;;;;;13.35;4.82;;;5.90;99.90;;;;;;4994062;28;20202;-70
2024/01/02 01:25:07;;;;;;;14.90;5.55;;;6.00;99.90;;;;;;4995010;28;20621;-71
2024/01/02 01:27:34;;;;;;;19.25;6.53;;;6.00;99.90;;;;;;4988196;28;20234;-70
2024/01/02 01:30:01;;;;;;;22.77;7.28;;;5.90;99.90;;;;;;4994959;28;20311;-71
2024/01/02 01:32:29;;;;;;;27.15;7.75;;;6.00;99.90;;;;;;4990347;28;20641;-69
2024/01/02 01:34:56;;;;;;;16.15;5.93;;;6.00;99.90;;;;;;4990619;28;20201;-72
2024/01/02 01:37:23;;;;;;;17.00;6.28;;;6.00;99.90;;;;;;4994312;28;20306;-71
2024/01/02 01:39:50;;;;;;;16.38;6.95;;;5.90;99.90;;;;;;4993346;28;20813;-71
2024/01/02 01:42:17;;;;;;;24.80;6.32;;;6.00;99.90;;;;;;4994546;28;20206;-72
2024/01/02 01:44:44;;;;;;;22.08;4.90;;;6.00;99.90;;;;;;4993205;28;20289;-71
2024/01/02 01:47:11;;;;;;;20.92;7.38;;;6.00;99.90;;;;;;4993203;28;20703;-71
2024/01/02 01:49:40;;;;;;;13.10;6.07;;;6.00;99.90;;;;;;4992376;28;20308;-71
2024/01/02 01:52:08;;;;;;;17.48;5.50;;;6.10;99.90;;;;;;4994532;28;20210;-71
2024/01/02 01:54:35;;;;;;;16.08;6.40;;;6.10;99.90;;;;;;4993700;28;20205;-71
2024/01/02 01:57:03;;;;;;;21.20;7.00;;;6.10;99.90;;;;;;4993671;28;20288;-71
2024/01/02 01:59:31;;;;;;;25.75;6.47;;;6.20;99.90;;;;;;4992192;28;20268;-71
2024/01/02 02:01:59;;;;;;;15.10;5.72;;;6.20;99.90;;;;;;4991946;28;20276;-72
2024/01/02 02:04:28;;;;;;;13.27;5.05;;;6.30;99.90;;;;;;4993103;28;20209;-71
2024/01/02 02:06:56;;;;;;;14.70;5.43;;;6.40;99.90;;;;;;4990489;28;20368;-71
2024/01/02 02:09:23;;;;;;;14.23;4.72;;;6.40;99.90;;;;;;4989043;28;20670;-71
2024/01/02 02:11:51;;;;;;;13.82;5.90;;;6.40;99.90;;;;;;4993987;28;20739;-70
2024/01/02 02:14:19;;;;;;;17.83;5.70;;;6.40;99.90;;;;;;4994612;28;20206;-71
2024/01/02 02:16:46;;;;;;;13.70;5.63;;;6.40;99.90;;;;;;4992034;28;20244;-71
2024/01/02 02:19:13;;;;;;;9.75;4.68;;;6.40;99.90;;;;;;4993210;28;20205;-70
2024/01/02 02:21:40;;;;;;;10.40;4.30;;;6.50;99.90;;;;;;4989921;28;20250;-72
2024/01/02 02:24:08;;;;;;;16.33;5.82;;;6.40;99.90;;;;;;4993324;28;20672;-71
2024/01/02 02:26:35;;;;;;;19.33;6.40;;;6.50;99.90;;;;;;4993228;28;20244;-72
2024/01/02 02:29:02;;;;;;;19.20;4.90;;;6.50;99.90;;;;;;4990882;28;20226;-70
2024/01/02 02:31:30;;;;;;;8.23;5.45;;;6.50;99.90;;;;;;4992896;28;20202;-71
2024/01/02 02:33:57;;;;;;;13.98;5.38;;;6.50;99.90;;;;;;4992582;28;20700;-70
2024/01/02 02:36:24;;;;;;;10.60;4.07;;;6.50;99.90;;;;;;4992955;28;20206;-71
2024/01/02 02:38:51;;;;;;;13.02;4.63;;;6.50;99.90;;;;;;4990776;28;20268;-71
2024/01/02 02:41:19;;;;;;;14.95;3.53;;;6.60;99.90;;;;;;4993410;28;20605;-71
2024/01/02 02:43:46;;;;;;;13.48;4.13;;;6.60;99.90;;;;;;4985296;28;20261;-70
2024/01/02 02:46:13;;;;;;;9.13;4.22;;;6.60;99.90;;;;;;4991368;28;20229;-71
2024/01/02 02:48:40;;;;;;;13.02;4.03;;;6.60;99.90;;;;;;4991355;28;20222;-71
2024/01/02 02:51:07;;;;;;;11.65;5.20;;;6.60;99.90;;;;;;4992503;28;20234;-71
2024/01/02 02:53:34;;;;;;;12.98;4.40;;;6.70;99.90;;;;;;4992252;28;20246;-71
2024/01/02 02:56:01;;;;;;;14.68;4.47;;;6.70;99.90;;;;;;4992294;28;20301;-72
2024/01/02 02:58:30;;;;;;;13.60;4.35;;;6.60;99.90;;;;;;4986596;28;20226;-72
2024/01/02 03:00:57;;;;;;;9.15;3.80;;;6.70;99.90;;;;;;4986485;28;20744;-71
2024/01/02 03:03:24;;;;;;;8.60;3.28;;;6.80;99.90;;;;;;4992478;28;20560;-70
2024/01/02 03:05:51;;;;;;;11.80;3.90;;;6.80;99.90;;;;;;4989185;28;20214;-71
2024/01/02 03:08:18;;;;;;;13.95;4.38;;;6.80;99.90;;;;;;4988824;28;21772;-72
2024/01/02 03:10:45;;;;;;;23.50;4.18;;;6.90;99.90;;;;;;4992854;28;20252;-71
2024/01/02 03:13:12;;;;;;;14.68;5.38;;;6.90;99.90;;;;;;4992133;28;20268;-72
2024/01/02 03:15:40;;;;;;;11.48;3.75;;;6.90;99.90;;;;;;4983566;28;20225;-71
2024/01/02 03:18:10;;;;;;;8.50;4.53;;;6.90;99.90;;;;;;4983228;28;20213;-72
2024/01/02 03:20:37;;;;;;;10.75;5.05;;;6.90;99.90;;;;;;4992406;28;20260;-71
2024/01/02 03:23:04;;;;;;;18.65;4.68;;;6.90;99.90;;;;;;4991807;28;20271;-70
2024/01/02 03:25:31;;;;;;;13.25;4.25;;;6.90;99.90;;;;;;4991925;28;20587;-71
2024/01/02 03:27:58;;;;;;;15.30;4.22;;;6.80;99.90;;;;;;4992024;28;20886;-71
2024/01/02 03:30:25;;;;;;;15.38;4.20;;;6.80;99.90;;;;;;4992929;28;20233;-72
2024/01/02 03:32:53;;;;;;;21.15;4.18;;;6.80;99.90;;;;;;4990463;28;20257;-71
2024/01/02 03:35:20;;;;;;;12.32;3.47;;;6.80;99.90;;;;;;4991725;28;20206;-70
2024/01/02 03:37:47;;;;;;;13.77;4.20;;;6.80;99.90;;;;;;4990837;28;20230;-70
2024/01/02 03:40:15;;;;;;;10.77;3.95;;;6.70;99.90;;;;;;4992358;28;20241;-70
2024/01/02 03:42:42;;;;;;;16.15;6.07;;;6.80;99.90;;;;;;4991454;28;20293;-71
2024/01/02 03:45:10;;;;;;;21.83;4.38;;;6.70;99.90;;;;;;4991406;28;20648;-71
2024/01/02 03:47:37;;;;;;;15.85;3.92;;;6.70;99.90;;;;;;4990795;28;20272;-71
2024/01/02 03:50:06;;;;;;;11.60;4.20;;;6.70;99.90;;;;;;4991328;28;20296;-70
2024/01/02 03:52:34;;;;;;;18.70;3.83;;;6.70;99.90;;;;;;4992429;28;20210;-70
2024/01/02 03:55:01;;;;;;;16.45;4.30;;;6.60;99.90;;;;;;4992139;28;20194;-70
2024/01/02 03:57:28;;;;;;;15.38;3.53;;;6.60;99.90;;;;;;4991574;28;20633;-70
2024/01/02 03:59:55;;;;;;;14.18;4.05;;;6.70;99.90;;;;;;4991592;28;20225;-70
2024/01/02 04:02:22;;;;;;;17.48;3.70;;;6.60;99.90;;;;;;4991366;28;20296;-69
2024/01/02 04:04:49;;;;;;;14.00;3.40;;;6.60;99.90;;;;;;4991824;28;20283;-70
2024/01/02 04:07:18;;;;;;;15.77;4.35;;;6.60;99.90;;;;;;4990407;28;20250;-69
2024/01/02 04:09:45;;;;;;;11.38;3.70;;;6.60;99.90;;;;;;4993790;28;20230;-70
2024/01/02 04:12:12;;;;;;;9.63;3.38;;;6.60;99.90;;;;;;4993323;28;20252;-70
2024/01/02 04:14:39;;;;;;;16.15;3.03;;;6.60;99.90;;;;;;4995900;28;20210;-71
2024/01/02 04:17:06;;;;;;;7.65;3.17;;;6.70;99.90;;;;;;4994186;28;20268;-72
2024/01/02 04:19:33;;;;;;;10.85;3.72;;;6.70;99.90;;;;;;4995154;28;20210;-71
2024/01/02 04:22:00;;;;;;;12.80;4.55;;;6.70;99.90;;;;;;4993523;28;20658;-69
2024/01/02 04:24:28;;;;;;;20.77;3.35;;;6.70;99.90;;;;;;4995307;28;20266;-69
2024/01/02 04:26:55;;;;;;;11.48;4.25;;;6.70;99.90;;;;;;4992813;28;20284;-69
2024/01/02 04:29:22;;;;;;;13.18;3.25;;;6.70;99.90;;;;;;4994031;28;20272;-70
2024/01/02 04:31:49;;;;;;;34.78;4.97;;;6.70;99.90;;;;;;4994088;28;20543;-70
2024/01/02 04:34:16;;;;;;;9.95;3.30;;;6.60;99.90;;;;;;4992519;28;20198;-68
2024/01/02 04:36:45;;;;;;;13.10;4.30;;;6.60;99.90;;;;;;4994443;28;20779;-70
2024/01/02 04:39:12;;;;;;;10.75;3.65;;;6.60;99.90;;;;;;4992831;28;20294;-70
2024/01/02 04:41:41;;;;;;;13.13;2.88;;;6.60;99.90;;;;;;4994403;28;20221;-71
2024/01/02 04:44:08;;;;;;;10.40;2.85;;;6.50;99.90;;;;;;4993584;28;20202;-71
2024/01/02 04:46:35;;;;;;;10.90;3.90;;;6.50;99.90;;;;;;4994568;28;20637;-70
2024/01/02 04:49:01;;;;;;;10.75;3.65;;;6.50;99.90;;;;;;4986113;28;20603;-70
2024/01/02 04:51:28;;;;;;;12.57;3.10;;;6.50;99.90;;;;;;4992799;28;20202;-70
2024/01/02 04:53:55;;;;;;;11.93;3.78;;;6.50;99.90;;;;;;4994283;28;20289;-70
2024/01/02 04:56:22;;;;;;;13.15;4.38;;;6.50;99.90;;;;;;4993366;28;20295;-69
2024/01/02 04:58:51;;;;;;;8.85;3.15;;;6.50;99.90;;;;;;4992172;28;20194;-70
2024/01/02 05:01:18;;;;;;;13.07;4.28;;;6.50;99.90;;;;;;4991724;28;20254;-69
2024/01/02 05:03:45;;;;;;;14.88;3.38;;;6.50;99.90;;;;;;4994324;28;20210;-69
2024/01/02 05:06:12;;;;;;;16.45;3.50;;;6.50;99.90;;;;;;4994758;28;20272;-69
2024/01/02 05:08:39;;;;;;;10.35;3.10;;;6.50;99.90;;;;;;4993276;28;20284;-70
2024/01/02 05:11:06;;;;;;;9.52;3.30;;;6.50;99.90;;;;;;4990081;28;21352;-70
2024/01/02 05:13:33;;;;;;;14.18;4.55;;;6.50;99.90;;;;;;4992977;28;20248;-69
2024/01/02 05:16:01;;;;;;;10.48;3.45;;;6.60;99.90;;;;;;4994776;28;20237;-70
2024/01/02 05:18:28;;;;;;;10.90;2.78;;;6.50;99.90;;;;;;4993082;28;20222;-70
2024/01/02 05:20:55;;;;;;;20.00;4.68;;;6.50;99.90;;;;;;4993204;28;20237;-70
2024/01/02 05:23:22;;;;;;;13.70;2.95;;;6.50;99.90;;;;;;4994463;28;20210;-70
2024/01/02 05:25:49;;;;;;;7.60;4.20;;;6.50;99.90;;;;;;4987015;28;20206;-71
2024/01/02 05:28:16;;;;;;;7.90;3.03;;;6.50;99.90;;;;;;4994212;28;20629;-70
2024/01/02 05:30:43;;;;;;;8.70;3.50;;;6.50;99.90;;;;;;4993769;28;20619;-70
2024/01/02 05:33:12;;;;;;;9.60;3.25;;;6.50;99.90;;;;;;4994657;28;20261;-72
2024/01/02 05:35:39;;;;;;;7.00;3.42;;;6.50;99.90;;;;;;4992755;28;20214;-70
2024/01/02 05:38:06;;;;;;;7.47;2.85;;;6.50;99.90;;;;;;4985928;28;20772;-70
2024/01/02 05:40:33;;;;;;;9.90;2.42;;;6.50;99.90;;;;;;4991001;28;20206;-70
2024/01/02 05:43:00;;;;;;;12.35;3.08;;;6.50;99.90;;;;;;4989013;28;20282;-70
2024/01/02 05:45:27;;;;;;;10.38;3.42;;;6.50;99.90;;;;;;4989837;28;20269;-69
2024/01/02 05:47:54;;;;;;;11.57;3.60;;;6.50;99.90;;;;;;4991978;28;20261;-69
2024/01/02 05:50:22;;;;;;;6.30;2.13;;;6.50;99.90;;;;;;4993959;28;20222;-69
2024/01/02 05:52:50;;;;;;;5.93;2.60;;;6.50;99.90;;;;;;4993324;28;20249;-68
2024/01/02 05:55:17;;;;;;;16.00;3.17;;;6.60;99.90;;;;;;4993822;28;20202;-69
2024/01/02 05:57:44;;;;;;;13.40;2.35;;;6.60;99.90;;;;;;4992101;28;20327;-69
2024/01/02 06:00:11;;;;;;;8.23;2.78;;;6.50;99.90;;;;;;4994232;28;20202;-69
2024/01/02 06:02:39;;;;;;;12.18;3.50;;;6.50;99.90;;;;;;4992698;28;20221;-69
2024/01/02 06:05:07;;;;;;;4.63;1.92;;;6.60;99.90;;;;;;4993036;28;20585;-69
2024/01/02 06:07:35;;;;;;;12.15;2.92;;;6.60;99.90;;;;;;4993145;28;20241;-70
2024/01/02 06:10:02;;;;;;;4.30;2.08;;;6.60;99.90;;;;;;4992727;28;20229;-69
2024/01/02 06:12:29;;;;;;;6.18;3.25;;;6.60;99.90;;;;;;4993906;28;20206;-69
2024/01/02 06:14:56;;;;;;;14.52;2.80;;;6.60;99.90;;;;;;4992181;28;20214;-70
2024/01/02 06:17:24;;;;;;;6.72;2.20;;;6.60;99.90;;;;;;4992321;28;20268;-69
2024/01/02 06:19:51;;;;;;;7.82;2.25;;;6.60;99.90;;;;;;4989390;28;20198;-69
2024/01/02 06:22:18;;;;;;;12.63;3.60;;;6.60;99.90;;;;;;4992727;28;20206;-70
2024/01/02 06:24:46;;;;;;;5.35;2.38;;;6.60;99.90;;;;;;4992519;28;20672;-70
2024/01/02 06:27:13;;;;;;;5.88;2.53;;;6.60;99.90;;;;;;4991987;28;20238;-70
2024/01/02 06:29:40;;;;;;;4.35;2.45;;;6.60;99.90;;;;;;4992663;28;20572;-70
2024/01/02 06:32:08;;;;;;;11.55;2.67;;;6.60;99.90;;;;;;4989630;28;20297;-70
2024/01/02 06:34:35;;;;;;;7.35;2.38;;;6.60;99.90;;;;;;4993533;28;20263;-70
2024/01/02 06:37:03;;;;;;;8.40;2.75;;;6.60;99.90;;;;;;4989127;28;20233;-70
2024/01/02 06:39:30;;;;;;;18.63;4.18;;;6.60;99.90;;;;;;4992350;28;20229;-71
2024/01/02 06:41:58;;;;;;;5.75;2.97;;;6.70;99.90;;;;;;4992408;28;20252;-70
2024/01/02 06:44:25;;;;;;;7.88;3.13;;;6.60;99.90;;;;;;4991587;28;20207;-70
2024/01/02 06:46:54;;;;;;;6.13;3.00;;;6.70;99.90;;;;;;4991382;28;20300;-70
2024/01/02 06:49:21;;;;;;;5.55;3.00;;;6.70;99.90;;;;;;4986585;28;20313;-70
2024/01/02 06:51:48;;;;;;;9.43;3.70;;;6.70;99.90;;;;;;4992145;28;20288;-71
2024/01/02 06:54:15;;;;;;;5.05;2.97;;;6.70;99.90;;;;;;4992239;28;20358;-70
2024/01/02 06:56:42;;;;;;;11.27;6.07;;;6.70;99.90;;;;;;4991617;28;20340;-70
2024/01/02 06:59:10;;;;;;;10.88;3.45;;;6.70;99.90;;;;;;4991417;28;20202;-69
2024/01/02 07:01:37;;;;;;;9.00;3.20;;;6.70;99.90;;;;;;4992037;28;20657;-69
2024/01/02 07:04:05;;;;;;;6.32;2.63;;;6.70;99.90;;;;;;4992534;28;20285;-70
2024/01/02 07:06:32;;;;;;;7.40;4.07;;;6.70;99.90;;;;;;4989049;28;20241;-71
2024/01/02 07:08:58;;;;;;;7.80;3.57;;;6.70;99.90;;;;;;4990325;28;20479;-70
2024/01/02 07:11:25;;;;;;;9.50;4.10;;;6.70;99.90;;;;;;4991587;28;20453;-70
2024/01/02 07:13:52;;;;;;;9.68;3.88;;;6.70;99.90;;;;;;4992527;28;20238;-72
2024/01/02 07:16:20;;;;;;;6.78;4.72;;;6.70;99.90;;;;;;4992934;28;20206;-70
2024/01/02 07:18:47;;;;;;;10.30;4.93;;;6.80;99.90;;;;;;4991896;28;20630;-70
2024/01/02 07:21:14;;;;;;;11.75;4.57;;;6.80;99.90;;;;;;4992663;28;20567;-70
2024/01/02 07:23:41;;;;;;;9.27;4.00;;;6.70;99.90;;;;;;4991107;28;20288;-70
2024/01/02 07:26:08;;;;;;;8.23;4.45;;;6.70;99.90;;;;;;4992413;28;20606;-70
2024/01/02 07:28:36;;;;;;;8.70;3.90;;;6.70;99.90;;;;;;4991873;28;20226;-71
2024/01/02 07:31:04;;;;;;;8.15;4.25;;;6.80;99.90;;;;;;4991932;28;20261;-71
2024/01/02 07:33:33;;;;;;;3.60;2.92;;;6.70;99.90;;;;;;4992553;28;20264;-71
2024/01/02 07:36:00;;;;;;;10.73;4.90;;;6.70;99.90;;;;;;4991434;28;20351;-70
2024/01/02 07:38:27;;;;;;;7.57;4.35;;;6.70;99.90;;;;;;4991946;28;20257;-70
2024/01/02 07:40:54;;;;;;;6.57;3.75;;;6.80;99.90;;;;;;4989612;28;20230;-71
2024/01/02 07:43:22;;;;;;;7.93;3.40;;;6.80;99.90;;;;;;4992513;28;20602;-70
2024/01/02 07:45:48;;;;;;;7.78;3.85;;;6.70;99.90;;;;;;4994493;28;20610;-72
2024/01/02 07:48:16;;;;;;;5.60;3.45;;;6.70;99.90;;;;;;4995891;28;20280;-72
2024/01/02 07:50:45;;;;;;;4.85;4.13;;;6.80;99.90;;;;;;4994985;28;20226;-72
2024/01/02 07:53:16;;;;;;;7.55;4.20;;;6.80;99.90;;;;;;4995549;28;20298;-69
2024/01/02 07:55:43;;;;;;;7.43;4.50;;;6.80;99.90;;;;;;4994593;28;20296;-71
2024/01/02 07:58:10;;;;;;;6.22;5.57;;;6.80;99.90;;;;;;4993270;28;20583;-74
2024/01/02 08:00:44;;;;;;;13.50;5.32;;;6.80;99.90;;;;;;4997322;28;20256;-73
2024/01/02 08:03:14;;;;;;;8.57;4.80;;;6.80;99.90;;;;;;4992912;28;20226;-74
2024/01/02 08:05:41;;;;;;;7.40;4.93;;;6.80;99.90;;;;;;4994494;28;20220;-75
2024/01/02 08:08:35;;;;;;;5.05;3.97;;;6.80;99.90;;;;;;4995447;28;20701;-74
2024/01/02 08:11:04;;;;;;;6.97;4.43;;;6.80;99.90;;;;;;4996553;28;20214;-74
2024/01/02 08:13:48;;;;;;;5.05;4.55;;;6.80;99.90;;;;;;4997278;28;20543;-74
2024/01/02 08:16:15;;;;;;;7.43;4.32;;;6.80;99.90;;;;;;4996706;28;20206;-72
2024/01/02 08:18:43;;;;;;;6.68;3.92;;;6.80;99.90;;;;;;4996063;28;20637;-71
2024/01/02 08:21:10;;;;;;;4.80;3.50;;;6.80;99.90;;;;;;4996502;28;20281;-73
2024/01/02 08:23:39;;;;;;;8.93;4.70;;;6.70;99.90;;;;;;4995340;28;20241;-73
2024/01/02 08:26:07;;;;;;;3.13;2.83;;;6.70;99.90;;;;;;4995589;28;20635;-72
2024/01/02 08:28:34;;;;;;;7.45;3.90;;;6.70;99.90;;;;;;4995922;28;20704;-73
2024/01/02 08:31:01;;;;;;;6.50;3.92;;;6.70;99.90;;;;;;4995430;28;20218;-73
2024/01/02 08:33:28;;;;;;;9.90;3.80;;;6.70;99.90;;;;;;4996150;28;20209;-74
2024/01/02 08:35:55;;;;;;;7.07;4.75;;;6.80;99.90;;;;;;4995662;28;20206;-74
2024/01/02 08:38:22;;;;;;;4.57;3.35;;;6.80;99.90;;;;;;4989603;28;20341;-73
2024/01/02 08:40:51;;;;;;;3.67;2.67;;;6.80;99.90;;;;;;4993821;28;20233;-72
2024/01/02 08:43:19;;;;;;;7.18;3.15;;;6.80;99.90;;;;;;4991985;28;20206;-73
2024/01/02 08:45:46;;;;;;;5.00;4.32;;;6.80;99.90;;;;;;4994152;28;20206;-77
2024/01/02 08:48:14;;;;;;;4.47;2.70;;;6.80;99.90;;;;;;4989492;28;20222;-75
2024/01/02 08:50:42;;;;;;;4.55;2.95;;;6.80;99.90;;;;;;5007809;22;20230;-66
2024/01/02 08:53:09;;;;;;;4.22;2.85;;;6.80;99.90;;;;;;4986121;28;20280;-66
2024/01/02 08:55:36;;;;;;;6.53;4.03;;;6.90;99.90;;;;;;4985068;28;20295;-66
2024/01/02 08:58:05;;;;;;;3.90;3.00;;;6.80;99.90;;;;;;4985635;28;20237;-65
2024/01/02 09:00:32;;;;;;;3.15;2.70;;;6.80;99.90;;;;;;4994970;28;20238;-67
2024/01/02 09:03:00;;;;;;;2.67;2.10;;;6.80;99.90;;;;;;4986775;28;20342;-67
2024/01/02 09:05:27;;;;;;;3.97;2.97;;;6.80;99.90;;;;;;4984340;28;20294;-67
2024/01/02 09:07:54;;;;;;;3.00;2.17;;;6.80;99.90;;;;;;4992689;28;20252;-68
2024/01/02 09:10:22;;;;;;;2.88;1.90;;;6.80;99.90;;;;;;4981768;28;20233;-67
2024/01/02 09:12:49;;;;;;;1.55;1.33;;;6.80;99.90;;;;;;4985079;28;20313;-68
2024/01/02 09:15:17;;;;;;;1.60;1.50;;;6.90;99.90;;;;;;4993647;28;20210;-67
2024/01/02 09:17:44;;;;;;;1.83;1.38;;;6.70;99.90;;;;;;4986902;28;20288;-67
2024/01/02 09:20:12;;;;;;;2.33;1.73;;;6.70;99.90;;;;;;4984024;28;20293;-68
2024/01/02 09:22:38;;;;;;;2.63;2.42;;;6.80;99.90;;;;;;4987055;28;20226;-66
2024/01/02 09:25:06;;;;;;;4.18;2.17;;;6.80;99.90;;;;;;4988268;28;20309;-67
2024/01/02 09:27:35;;;;;;;2.03;1.80;;;6.80;99.90;;;;;;4983917;28;20215;-67
2024/01/02 09:30:04;;;;;;;2.03;1.83;;;6.80;99.90;;;;;;4992897;28;20230;-67
2024/01/02 09:32:33;;;;;;;2.30;1.95;;;6.80;99.90;;;;;;4992985;28;20230;-66
2024/01/02 09:35:00;;;;;;;3.50;1.80;;;6.80;99.90;;;;;;4992557;28;20202;-68
2024/01/02 09:37:27;;;;;;;2.50;1.63;;;6.80;99.90;;;;;;4982228;28;20652;-67
2024/01/02 09:39:54;;;;;;;1.27;1.15;;;6.90;99.90;;;;;;4993817;28;20205;-67
2024/01/02 09:42:35;;;;;;;1.75;1.40;;;6.80;99.90;;;;;;4991729;28;20235;-67
2024/01/02 09:45:10;;;;;;;1.30;1.13;;;6.80;99.90;;;;;;4990094;28;20673;-68
2024/01/02 09:47:59;;;;;;;1.95;1.75;;;6.90;99.90;;;;;;4990112;28;20285;-67
2024/01/02 09:50:33;;;;;;;1.40;1.13;;;6.80;99.90;;;;;;4985424;28;20280;-66
2024/01/02 09:53:29;;;;;;;2.85;1.60;;;6.80;99.90;;;;;;4986301;28;20220;-67
2024/01/02 09:56:03;;;;;;;1.40;1.23;;;6.80;99.90;;;;;;4992727;28;20252;-67
2024/01/02 09:58:40;;;;;;;2.10;1.48;;;6.80;99.90;;;;;;4984592;28;20784;-68
2024/01/02 10:01:19;;;;;;;1.42;1.30;;;6.80;99.90;;;;;;4990475;28;20325;-68
2024/01/02 10:04:11;;;;;;;1.80;1.30;;;6.80;99.90;;;;;;4989580;28;20240;-69
2024/01/02 10:06:54;;;;;;;1.08;0.98;;;6.90;99.90;;;;;;4990463;28;20246;-67
2024/01/02 10:09:37;;;;;;;1.15;1.05;;;6.80;99.90;;;;;;4988966;28;20671;-67
2024/01/02 10:12:16;;;;;;;3.08;2.30;;;6.80;99.90;;;;;;4984460;28;20309;-68
2024/01/02 10:14:56;;;;;;;3.40;1.95;;;6.80;99.90;;;;;;4989097;28;20644;-68
2024/01/02 10:17:35;;;;;;;1.35;1.25;;;6.90;99.90;;;;;;4975665;28;20242;-68
2024/01/02 10:20:11;;;;;;;1.80;1.63;;;6.90;99.90;;;;;;4991279;28;20217;-68
2024/01/02 10:22:47;;;;;;;1.58;1.48;;;6.90;99.90;;;;;;4984832;28;20717;-67
2024/01/02 10:25:17;;;;;;;1.50;1.30;;;6.90;99.90;;;;;;4979870;28;20208;-68
2024/01/02 10:41:27;;;;;;;1.40;1.20;;;7.00;99.90;;;;;;5006131;23;20723;-73
2024/01/02 10:44:05;;;;;;;1.13;1.02;;;7.00;99.90;;;;;;4993134;28;20202;-72
2024/01/02 10:46:41;;;;;;;2.60;2.13;;;7.00;99.90;;;;;;4993579;28;20213;-70
2024/01/02 10:49:19;;;;;;;2.65;1.80;;;7.10;99.90;;;;;;4990864;28;20213;-70
2024/01/02 10:51:52;;;;;;;5.05;1.90;;;7.20;99.90;;;;;;5008163;28;20229;-70
2024/01/02 10:54:28;;;;;;;2.05;1.85;;;7.20;99.90;;;;;;4990380;28;20218;-71
2024/01/02 10:57:03;;;;;;;1.60;1.15;;;7.30;99.90;;;;;;4993130;28;20329;-72
2024/01/02 10:59:44;;;;;;;2.67;2.00;;;7.20;99.90;;;;;;4989257;28;20648;-68
2024/01/02 11:02:27;;;;;;;3.20;1.70;;;7.30;99.90;;;;;;4990350;28;20546;-70
2024/01/02 11:05:04;;;;;;;3.10;2.28;;;7.30;99.90;;;;;;4991257;28;20597;-70
2024/01/02 11:07:36;;;;;;;3.15;2.35;;;7.30;99.90;;;;;;4992814;28;20279;-72
2024/01/02 11:10:08;;;;;;;2.78;2.10;;;7.40;99.90;;;;;;4992655;28;20680;-70
2024/01/02 11:12:46;;;;;;;2.63;2.42;;;7.40;99.90;;;;;;4994041;28;20632;-72
2024/01/02 11:15:15;;;;;;;4.20;3.67;;;7.20;99.90;;;;;;4991973;28;20236;-68
2024/01/02 11:17:44;;;;;;;2.22;2.03;;;7.30;99.90;;;;;;4993684;28;20245;-73
2024/01/02 11:20:16;;;;;;;2.90;2.67;;;7.40;99.90;;;;;;4991405;28;20206;-71
2024/01/02 11:22:55;;;;;;;2.63;2.42;;;7.40;99.90;;;;;;4992411;28;20237;-72
2024/01/02 11:25:25;;;;;;;2.20;1.65;;;7.40;99.90;;;;;;4988895;28;20246;-71
2024/01/02 11:27:55;;;;;;;2.58;2.38;;;7.50;99.90;;;;;;4995318;28;20638;-71
2024/01/02 11:30:24;;;;;;;4.18;3.75;;;7.50;99.90;;;;;;4993021;28;20264;-73
2024/01/02 11:33:00;;;;;;;3.17;2.85;;;7.50;99.90;;;;;;4992439;28;20234;-72
2024/01/02 11:35:31;;;;;;;4.40;3.70;;;7.60;99.90;;;;;;4992263;28;20242;-72
2024/01/02 11:38:08;;;;;;;5.90;4.03;;;7.60;99.90;;;;;;4991845;28;20206;-70
2024/01/02 11:40:44;;;;;;;7.82;4.30;;;7.60;99.90;;;;;;4993130;28;20312;-71
2024/01/02 11:43:22;;;;;;;4.82;2.92;;;7.60;99.90;;;;;;4993483;28;20205;-69
2024/01/02 11:45:57;;;;;;;6.43;4.00;;;7.70;99.90;;;;;;5007510;28;20201;-71
2024/01/02 11:48:39;;;;;;;3.60;3.30;;;7.70;99.90;;;;;;4991498;28;20225;-70
2024/01/02 11:51:15;;;;;;;3.45;3.08;;;7.70;99.90;;;;;;5006745;28;20230;-72
2024/01/02 11:53:58;;;;;;;5.50;3.97;;;7.80;99.90;;;;;;4990847;28;20210;-70
2024/01/02 11:56:29;;;;;;;4.57;4.18;;;7.80;99.90;;;;;;4987771;28;20210;-69
2024/01/02 11:59:09;;;;;;;4.55;4.05;;;7.90;99.90;;;;;;4992014;28;20234;-67
2024/01/02 12:01:49;;;;;;;5.43;4.90;;;7.80;99.90;;;;;;4991120;28;20218;-69
2024/01/02 12:04:27;;;;;;;5.18;4.70;;;7.80;99.90;;;;;;4988085;28;20287;-70
2024/01/02 12:06:59;;;;;;;4.50;3.70;;;7.90;99.90;;;;;;4989216;28;20353;-71
2024/01/02 12:09:29;;;;;;;11.82;4.45;;;8.00;99.90;;;;;;4990873;28;20218;-68
2024/01/02 12:12:08;;;;;;;5.60;4.82;;;8.00;99.90;;;;;;4992664;28;20233;-69
2024/01/02 12:14:48;;;;;;;8.23;6.07;;;8.10;99.90;;;;;;4992842;28;20206;-69
2024/01/02 12:17:20;;;;;;;7.55;6.07;;;8.20;99.90;;;;;;4991455;28;20660;-71
2024/01/02 12:19:51;;;;;;;9.82;6.10;;;8.20;99.90;;;;;;4992143;28;20206;-71
2024/01/02 12:22:20;;;;;;;7.65;6.35;;;8.30;99.90;;;;;;4992400;28;20305;-72
2024/01/02 12:24:50;;;;;;;5.90;5.28;;;8.40;99.90;;;;;;4993048;28;20206;-71
2024/01/02 12:27:20;;;;;;;6.88;4.70;;;8.40;99.90;;;;;;4999900;28;20238;-70
2024/01/02 12:29:51;;;;;;;7.53;6.47;;;8.50;99.90;;;;;;4992506;28;20202;-71
2024/01/02 12:32:35;;;;;;;6.30;5.65;;;8.50;99.90;;;;;;4995382;28;20226;-73
2024/01/02 12:35:05;;;;;;;7.55;6.00;;;8.60;99.90;;;;;;4995648;28;20232;-69
2024/01/02 12:37:37;;;;;;;12.80;7.05;;;8.60;99.90;;;;;;4994962;28;20213;-72
2024/01/02 12:40:10;;;;;;;15.05;10.98;;;8.50;99.90;;;;;;4995936;28;20202;-72
2024/01/02 12:42:39;;;;;;;8.35;6.78;;;8.60;99.90;;;;;;4989794;28;20241;-69
2024/01/02 12:45:13;;;;;;;7.15;6.28;;;8.60;99.90;;;;;;4993547;28;20213;-72
2024/01/02 12:47:43;;;;;;;8.95;7.80;;;8.70;99.90;;;;;;4995094;28;20209;-73
2024/01/02 12:50:13;;;;;;;6.60;5.95;;;8.70;99.90;;;;;;4995454;28;20226;-71
2024/01/02 12:52:47;;;;;;;10.32;8.55;;;8.70;99.90;;;;;;4995190;28;20244;-70
2024/01/02 12:55:15;;;;;;;9.68;7.50;;;8.70;99.90;;;;;;4994744;28;20644;-69
2024/01/02 12:57:43;;;;;;;10.88;7.00;;;8.80;99.90;;;;;;4992621;28;20656;-70
2024/01/02 13:00:16;;;;;;;7.35;6.43;;;8.80;99.90;;;;;;4995575;28;20656;-69
2024/01/02 13:02:45;;;;;;;12.05;9.95;;;8.90;99.90;;;;;;4996123;28;20607;-69
2024/01/02 13:05:13;;;;;;;11.43;8.52;;;8.90;99.90;;;;;;4991764;28;20209;-69
2024/01/02 13:07:42;;;;;;;10.80;8.02;;;8.90;99.90;;;;;;4994477;28;20202;-69
2024/01/02 13:10:11;;;;;;;10.98;8.85;;;8.90;99.90;;;;;;4994365;28;20253;-69
2024/01/02 13:12:40;;;;;;;12.30;9.30;;;9.00;99.90;;;;;;4994581;28;20234;-73
2024/01/02 13:15:10;;;;;;;10.20;8.68;;;9.00;99.90;;;;;;4995328;28;20217;-70
2024/01/02 13:17:39;;;;;;;10.15;8.82;;;9.00;99.90;;;;;;4994857;28;20613;-71